Santo Nino — EALD — position and weather

sailwx.info

Track history (hours):
 
Tides and Currents Weather Stations Pressure Air Temp Water Temp Dewpoint Dewpoint Depression Visibility Wind Speed Wind Dir Waves Ship Positions

Santo Nino

Last reported at 2018-Apr-25 06:08 UTC. Time now 2018-Apr-25 22:13 UTC.
Position N 28°34' W 016°05'.

Length 30 m.

MMSI: 224139820.

Date/timePositionNaut miles runAvg speedWind from/ knotsBaromVisibWave heightAir tempDewpointWater temp
2018-Apr-25 06:08N 28°34' W 016°05'1 6.3
2018-Apr-25 06:00N 28°33' W 016°06'3 6.1
2018-Apr-25 05:30N 28°31' W 016°08'2 3.3
2018-Apr-25 05:00N 28°31' W 016°10'0 0.0
2018-Apr-25 04:30N 28°31' W 016°10'0 0.0
2018-Apr-25 04:00N 28°31' W 016°10'0 0.0
2018-Apr-25 03:30N 28°31' W 016°10'0 0.0
2018-Apr-25 03:00N 28°31' W 016°10'0 0.1
2018-Apr-25 02:30N 28°31' W 016°10'0 0.1
2018-Apr-25 02:00N 28°31' W 016°10'0 0.0
2018-Apr-25 01:30N 28°31' W 016°10'0 0.1
2018-Apr-25 01:00N 28°31' W 016°10'0 0.1
2018-Apr-25 00:30N 28°31' W 016°10'0 0.1
2018-Apr-25 00:00N 28°31' W 016°10'0 0.0
2018-Apr-24 23:30N 28°31' W 016°10'0 0.0
2018-Apr-24 23:00N 28°31' W 016°10'0 0.1
2018-Apr-24 22:30N 28°31' W 016°10'0 0.1
2018-Apr-24 22:00N 28°31' W 016°10'0 0.1
2018-Apr-24 21:30N 28°31' W 016°10'0 0.1
2018-Apr-24 21:00N 28°31' W 016°10'0 0.1
2018-Apr-24 20:30N 28°31' W 016°10'0 0.0
2018-Apr-24 20:00N 28°31' W 016°10'0 0.1
2018-Apr-24 19:30N 28°31' W 016°10'0 0.1
2018-Apr-24 19:00N 28°31' W 016°10'0 0.0
2018-Apr-24 18:30N 28°31' W 016°10'0 0.0
2018-Apr-24 18:00N 28°31' W 016°10'0 0.1
2018-Apr-24 17:30N 28°31' W 016°10'2 3.5
2018-Apr-24 17:00N 28°30' W 016°12'1 1.4
2018-Apr-24 16:30N 28°30' W 016°12'0 0.4
2018-Apr-24 16:00N 28°30' W 016°12'0 0.0
2018-Apr-24 15:30N 28°30' W 016°12'0 0.0
2018-Apr-24 15:00N 28°30' W 016°12'0 0.0
2018-Apr-24 14:30N 28°30' W 016°12'0 0.0
2018-Apr-24 14:00N 28°30' W 016°12'0 0.0
2018-Apr-24 13:30N 28°30' W 016°12'0 0.0
2018-Apr-24 13:00N 28°30' W 016°12'0 0.0
2018-Apr-24 12:30N 28°30' W 016°12'0 0.0
2018-Apr-24 12:00N 28°30' W 016°12'0 0.0
2018-Apr-24 11:30N 28°30' W 016°12'0 0.0
2018-Apr-24 11:00N 28°30' W 016°12'0 0.4
2018-Apr-24 10:30N 28°30' W 016°12'0 0.0
2018-Apr-24 10:00N 28°30' W 016°12'0 0.0
2018-Apr-24 09:30N 28°30' W 016°12'4 0.3
2018-Apr-23 20:59N 28°27' W 016°15'3 1.2
2018-Apr-23 18:40N 28°29' W 016°13'1 6.5
2018-Apr-23 18:28N 28°30' W 016°12'0 0.0
2018-Apr-23 11:13N 28°30' W 016°12'0 0.0
2018-Apr-23 11:00N 28°30' W 016°12'0 0.0
2018-Apr-23 10:30N 28°30' W 016°12'0 0.0
2018-Apr-23 09:59N 28°30' W 016°12'0 0.0
2018-Apr-23 09:29N 28°30' W 016°12'  
Track history (hours):
 
Tides and Currents Weather Stations Pressure Air Temp Water Temp Dewpoint Dewpoint Depression Visibility Wind Speed Wind Dir Waves Ship Positions

Santo Nino

Last reported at 2018-Apr-25 06:08 UTC. Time now 2018-Apr-25 22:13 UTC.
Position N 28°34' W 016°05'.

Length 30 m.

MMSI: 224139820.

Date/timePositionNaut miles runAvg speedWind from/ knotsBaromVisibWave heightAir tempDewpointWater temp
2018-Apr-25 06:08N 28°34' W 016°05'1 6.3
2018-Apr-25 06:00N 28°33' W 016°06'3 6.1
2018-Apr-25 05:30N 28°31' W 016°08'2 3.3
2018-Apr-25 05:00N 28°31' W 016°10'0 0.0
2018-Apr-25 04:30N 28°31' W 016°10'0 0.0
2018-Apr-25 04:00N 28°31' W 016°10'0 0.0
2018-Apr-25 03:30N 28°31' W 016°10'0 0.0
2018-Apr-25 03:00N 28°31' W 016°10'0 0.1
2018-Apr-25 02:30N 28°31' W 016°10'0 0.1
2018-Apr-25 02:00N 28°31' W 016°10'0 0.0
2018-Apr-25 01:30N 28°31' W 016°10'0 0.1
2018-Apr-25 01:00N 28°31' W 016°10'0 0.1
2018-Apr-25 00:30N 28°31' W 016°10'0 0.1
2018-Apr-25 00:00N 28°31' W 016°10'0 0.0
2018-Apr-24 23:30N 28°31' W 016°10'0 0.0
2018-Apr-24 23:00N 28°31' W 016°10'0 0.1
2018-Apr-24 22:30N 28°31' W 016°10'0 0.1
2018-Apr-24 22:00N 28°31' W 016°10'0 0.1
2018-Apr-24 21:30N 28°31' W 016°10'0 0.1
2018-Apr-24 21:00N 28°31' W 016°10'0 0.1
2018-Apr-24 20:30N 28°31' W 016°10'0 0.0
2018-Apr-24 20:00N 28°31' W 016°10'0 0.1
2018-Apr-24 19:30N 28°31' W 016°10'0 0.1
2018-Apr-24 19:00N 28°31' W 016°10'0 0.0
2018-Apr-24 18:30N 28°31' W 016°10'0 0.0
2018-Apr-24 18:00N 28°31' W 016°10'0 0.1
2018-Apr-24 17:30N 28°31' W 016°10'2 3.5
2018-Apr-24 17:00N 28°30' W 016°12'1 1.4
2018-Apr-24 16:30N 28°30' W 016°12'0 0.4
2018-Apr-24 16:00N 28°30' W 016°12'0 0.0
2018-Apr-24 15:30N 28°30' W 016°12'0 0.0
2018-Apr-24 15:00N 28°30' W 016°12'0 0.0
2018-Apr-24 14:30N 28°30' W 016°12'0 0.0
2018-Apr-24 14:00N 28°30' W 016°12'0 0.0
2018-Apr-24 13:30N 28°30' W 016°12'0 0.0
2018-Apr-24 13:00N 28°30' W 016°12'0 0.0
2018-Apr-24 12:30N 28°30' W 016°12'0 0.0
2018-Apr-24 12:00N 28°30' W 016°12'0 0.0
2018-Apr-24 11:30N 28°30' W 016°12'0 0.0
2018-Apr-24 11:00N 28°30' W 016°12'0 0.4
2018-Apr-24 10:30N 28°30' W 016°12'0 0.0
2018-Apr-24 10:00N 28°30' W 016°12'0 0.0
2018-Apr-24 09:30N 28°30' W 016°12'4 0.3
2018-Apr-23 20:59N 28°27' W 016°15'3 1.2
2018-Apr-23 18:40N 28°29' W 016°13'1 6.5
2018-Apr-23 18:28N 28°30' W 016°12'0 0.0
2018-Apr-23 11:13N 28°30' W 016°12'0 0.0
2018-Apr-23 11:00N 28°30' W 016°12'0 0.0
2018-Apr-23 10:30N 28°30' W 016°12'0 0.0
2018-Apr-23 09:59N 28°30' W 016°12'0 0.0
2018-Apr-23 09:29N 28°30' W 016°12'  

Dump ship's entire track history